createdAt,value
2022-12-15T00:00:47.561Z,20.92
2022-12-15T00:03:10.279Z,21.25
2022-12-15T00:05:32.539Z,19.45
2022-12-15T00:07:54.401Z,21.17
2022-12-15T00:10:23.157Z,22.60
2022-12-15T00:12:47.455Z,22.00
2022-12-15T00:15:13.817Z,22.00
2022-12-15T00:17:53.173Z,22.13
2022-12-15T00:20:22.822Z,22.67
2022-12-15T00:22:44.112Z,23.00
2022-12-15T00:25:06.385Z,21.05
2022-12-15T00:27:34.831Z,22.83
2022-12-15T00:29:55.450Z,22.38
2022-12-15T00:32:17.159Z,21.92
2022-12-15T00:34:50.673Z,21.88
2022-12-15T00:37:12.259Z,20.30
2022-12-15T00:39:18.247Z,20.92
2022-12-15T00:41:29.326Z,21.08
2022-12-15T00:43:36.386Z,20.27
2022-12-15T00:45:57.347Z,21.23
2022-12-15T00:48:06.419Z,19.88
2022-12-15T00:50:27.820Z,22.10
2022-12-15T00:52:51.354Z,22.15
2022-12-15T00:55:15.163Z,21.40
2022-12-15T00:57:47.838Z,22.35
2022-12-15T01:00:16.951Z,22.13
2022-12-15T01:02:38.519Z,22.88
2022-12-15T01:05:03.263Z,22.23
2022-12-15T01:07:24.618Z,22.45
2022-12-15T01:09:45.200Z,25.30
2022-12-15T01:12:38.699Z,23.27
2022-12-15T01:15:15.138Z,23.10
2022-12-15T01:17:46.645Z,23.48
2022-12-15T01:20:10.071Z,23.77
2022-12-15T01:22:12.945Z,23.73
2022-12-15T01:24:15.817Z,22.35
2022-12-15T01:26:18.693Z,23.65
2022-12-15T01:28:42.460Z,21.70
2022-12-15T01:30:50.897Z,22.80
2022-12-15T01:32:59.590Z,21.58
2022-12-15T01:35:01.500Z,21.67
2022-12-15T01:37:03.409Z,21.17
2022-12-15T01:39:07.402Z,20.88
2022-12-15T01:41:12.965Z,20.50
2022-12-15T01:43:24.717Z,21.25
2022-12-15T01:47:50.165Z,21.10
2022-12-15T01:50:03.063Z,21.17
2022-12-15T01:52:31.665Z,22.35
2022-12-15T01:54:50.270Z,21.13
2022-12-15T01:57:03.267Z,22.58
2022-12-15T01:59:20.659Z,22.58
2022-12-15T02:01:38.615Z,21.77
2022-12-15T02:03:44.327Z,22.13
2022-12-15T02:05:56.366Z,20.52
2022-12-15T02:08:05.244Z,22.02
2022-12-15T02:10:11.383Z,21.40
2022-12-15T02:12:39.773Z,20.42
2022-12-15T02:14:58.643Z,20.23
2022-12-15T02:17:30.872Z,20.20
2022-12-15T02:20:11.183Z,19.33
2022-12-15T02:22:54.774Z,20.75
2022-12-15T02:25:20.593Z,19.25
2022-12-15T02:27:53.618Z,19.00
2022-12-15T02:30:17.257Z,19.75
2022-12-15T02:32:47.924Z,19.60
2022-12-15T02:35:01.622Z,19.60
2022-12-15T02:37:14.856Z,19.58
2022-12-15T02:39:18.919Z,19.75
2022-12-15T02:41:46.412Z,20.42
2022-12-15T02:43:48.479Z,20.35
2022-12-15T02:46:19.707Z,20.38
2022-12-15T02:48:29.336Z,20.77
2022-12-15T02:51:00.794Z,21.52
2022-12-15T02:53:31.755Z,19.67
2022-12-15T02:55:50.233Z,21.53
2022-12-15T02:58:05.429Z,19.27
2022-12-15T03:00:11.415Z,20.27
2022-12-15T03:02:25.257Z,19.65
2022-12-15T03:04:28.090Z,18.88
2022-12-15T03:06:40.117Z,19.70
2022-12-15T03:08:51.327Z,19.52
2022-12-15T03:10:54.831Z,19.35
2022-12-15T03:13:03.631Z,19.45
2022-12-15T03:15:08.333Z,19.45
2022-12-15T03:17:15.233Z,19.25
2022-12-15T03:19:39.935Z,18.73
2022-12-15T03:21:43.893Z,18.08
2022-12-15T03:23:54.843Z,18.85
2022-12-15T03:25:59.832Z,17.77
2022-12-15T03:28:13.600Z,18.23
2022-12-15T03:30:17.691Z,17.95
2022-12-15T03:32:24.733Z,19.95
2022-12-15T03:34:35.610Z,17.58
2022-12-15T03:36:44.164Z,17.60
2022-12-15T03:38:51.876Z,18.73
2022-12-15T03:40:53.819Z,18.50
2022-12-15T03:42:58.902Z,17.77
2022-12-15T03:45:31.424Z,17.27
2022-12-15T03:47:45.425Z,17.40
2022-12-15T03:49:47.297Z,17.58
2022-12-15T03:51:55.293Z,17.30
2022-12-15T03:53:59.229Z,18.35
2022-12-15T03:56:07.664Z,18.45
2022-12-15T03:58:12.674Z,18.40
2022-12-15T04:00:25.917Z,19.52
2022-12-15T04:02:34.389Z,19.20
2022-12-15T04:04:44.379Z,19.63
2022-12-15T04:06:51.382Z,18.58
2022-12-15T04:09:09.682Z,19.25
2022-12-15T04:11:11.628Z,20.13
2022-12-15T04:13:14.545Z,21.85
2022-12-15T04:15:29.598Z,23.10
2022-12-15T04:17:38.035Z,25.33
2022-12-15T04:20:09.348Z,22.63
2022-12-15T04:22:18.121Z,22.63
2022-12-15T04:24:40.659Z,21.98
2022-12-15T04:27:04.144Z,21.45
2022-12-15T04:29:26.663Z,20.95
2022-12-15T04:31:52.058Z,21.50
2022-12-15T04:34:19.208Z,21.40
2022-12-15T04:36:40.757Z,23.02
2022-12-15T04:39:01.379Z,22.85
2022-12-15T04:41:24.078Z,21.95
2022-12-15T04:44:15.904Z,23.00
2022-12-15T04:46:36.449Z,23.38
2022-12-15T04:48:58.158Z,22.27
2022-12-15T04:51:25.110Z,22.85
2022-12-15T04:53:45.509Z,24.58
2022-12-15T04:56:18.893Z,23.50
2022-12-15T04:58:44.546Z,24.95
2022-12-15T05:01:30.555Z,23.08
2022-12-15T05:04:00.725Z,24.95
2022-12-15T05:06:23.523Z,25.10
2022-12-15T05:08:51.108Z,25.00
2022-12-15T05:11:17.876Z,26.20
2022-12-15T05:13:53.462Z,25.80
2022-12-15T05:16:13.750Z,27.60
2022-12-15T05:18:42.148Z,26.80
2022-12-15T05:21:02.283Z,24.98
2022-12-15T05:23:30.016Z,24.30
2022-12-15T05:25:57.755Z,25.00
2022-12-15T05:28:30.197Z,25.65
2022-12-15T05:31:12.454Z,26.02
2022-12-15T05:35:43.991Z,25.00
2022-12-15T05:38:10.639Z,23.65
2022-12-15T05:40:45.984Z,22.77
2022-12-15T05:43:01.905Z,24.88
2022-12-15T05:45:18.138Z,23.55
2022-12-15T05:47:32.020Z,28.25
2022-12-15T05:49:35.963Z,25.63
2022-12-15T05:51:59.801Z,24.58
2022-12-15T05:54:19.969Z,24.95
2022-12-15T05:56:38.193Z,25.48
2022-12-15T05:58:58.870Z,24.33
2022-12-15T06:01:07.860Z,25.15
2022-12-15T06:03:43.974Z,25.35
2022-12-15T06:05:56.446Z,26.30
2022-12-15T06:08:15.157Z,25.63
2022-12-15T06:10:23.943Z,25.00
2022-12-15T06:12:50.455Z,26.77
2022-12-15T06:15:39.914Z,26.08
2022-12-15T06:17:49.510Z,25.77
2022-12-15T06:19:55.830Z,25.67
2022-12-15T06:25:19.675Z,25.85
2022-12-15T06:27:37.982Z,25.55
2022-12-15T06:29:40.970Z,24.85
2022-12-15T06:32:12.000Z,25.58
2022-12-15T06:34:18.910Z,23.77
2022-12-15T06:36:25.061Z,23.92
2022-12-15T06:38:29.352Z,24.67
2022-12-15T06:40:41.850Z,24.25
2022-12-15T06:42:54.803Z,24.58
2022-12-15T06:44:58.687Z,25.90
2022-12-15T06:47:07.702Z,26.27
2022-12-15T06:49:16.942Z,25.08
2022-12-15T06:51:28.354Z,26.40
2022-12-15T06:53:52.470Z,27.58
2022-12-15T06:56:28.825Z,27.08
2022-12-15T06:58:58.391Z,27.05
2022-12-15T07:01:15.716Z,27.67
2022-12-15T07:03:26.352Z,27.58
2022-12-15T07:05:29.412Z,28.70
2022-12-15T07:07:41.235Z,26.95
2022-12-15T07:12:26.005Z,27.63
2022-12-15T07:14:28.038Z,28.43
2022-12-15T07:17:11.164Z,28.58
2022-12-15T07:19:23.262Z,26.52
2022-12-15T07:24:48.930Z,28.42
2022-12-15T07:27:35.764Z,29.17
2022-12-15T07:30:19.065Z,29.20
2022-12-15T07:32:38.481Z,30.35
2022-12-15T07:34:40.713Z,29.92
2022-12-15T07:36:54.934Z,30.10
2022-12-15T07:39:01.534Z,28.50
2022-12-15T07:41:09.741Z,30.27
2022-12-15T07:43:13.732Z,30.50
2022-12-15T07:45:19.673Z,30.05
2022-12-15T07:47:26.198Z,31.80
2022-12-15T07:50:03.077Z,29.75
2022-12-15T07:52:05.169Z,32.25
2022-12-15T07:54:17.975Z,31.95
2022-12-15T07:56:20.682Z,31.83
2022-12-15T07:58:34.926Z,30.38
2022-12-15T08:00:48.606Z,30.45
2022-12-15T08:02:56.052Z,32.47
2022-12-15T08:05:19.924Z,31.60
2022-12-15T08:07:33.231Z,31.20
2022-12-15T08:10:13.815Z,31.52
2022-12-15T08:15:59.397Z,30.30
2022-12-15T08:18:12.996Z,30.42
2022-12-15T08:21:11.079Z,32.42
2022-12-15T08:23:22.107Z,32.53
2022-12-15T08:26:07.984Z,34.30
2022-12-15T08:31:34.082Z,34.53
2022-12-15T08:34:01.344Z,35.00
2022-12-15T08:36:20.511Z,34.50
2022-12-15T08:39:06.841Z,33.55
2022-12-15T08:44:42.787Z,33.58
2022-12-15T08:47:33.102Z,35.08
2022-12-15T08:49:46.289Z,37.13
2022-12-15T08:52:07.253Z,35.03
2022-12-15T08:54:53.760Z,34.85
2022-12-15T08:57:14.664Z,35.92
2022-12-15T08:59:25.640Z,34.55
2022-12-15T09:01:32.625Z,35.97
2022-12-15T09:07:15.937Z,34.65
2022-12-15T09:09:19.294Z,36.53
2022-12-15T09:11:23.236Z,36.30
2022-12-15T09:13:36.218Z,33.10
2022-12-15T09:16:08.352Z,31.20
2022-12-15T09:18:13.450Z,28.42
2022-12-15T09:20:17.993Z,28.10
2022-12-15T09:22:25.364Z,28.05
2022-12-15T09:24:35.309Z,26.23
2022-12-15T09:26:45.530Z,25.67
2022-12-15T09:28:55.102Z,24.63
2022-12-15T09:31:07.743Z,23.08
2022-12-15T09:33:17.572Z,25.13
2022-12-15T09:35:20.976Z,27.27
2022-12-15T09:37:34.843Z,25.55
2022-12-15T09:39:38.160Z,24.80
2022-12-15T09:41:41.968Z,26.33
2022-12-15T09:44:22.232Z,25.10
2022-12-15T09:49:57.074Z,24.15
2022-12-15T09:52:13.717Z,26.45
2022-12-15T09:54:15.796Z,24.27
2022-12-15T09:56:27.411Z,24.42
2022-12-15T09:58:47.529Z,24.38
2022-12-15T10:03:54.750Z,24.83
2022-12-15T10:06:24.823Z,27.08
2022-12-15T10:11:04.225Z,28.33
2022-12-15T10:13:26.577Z,27.77
2022-12-15T10:15:41.397Z,29.20
2022-12-15T10:18:11.806Z,28.15
2022-12-15T10:20:26.743Z,27.83
2022-12-15T10:22:38.049Z,24.83
2022-12-15T10:27:49.628Z,23.83
2022-12-15T10:30:15.901Z,26.98
2022-12-15T10:32:44.477Z,26.20
2022-12-15T10:34:53.027Z,27.20
2022-12-15T10:37:03.449Z,27.38
2022-12-15T10:39:05.594Z,28.52
2022-12-15T10:41:19.970Z,27.42
2022-12-15T10:43:40.747Z,31.35
2022-12-15T10:46:04.072Z,33.78
2022-12-15T10:48:18.322Z,32.13
2022-12-15T10:50:28.935Z,31.83
2022-12-15T10:52:52.857Z,32.10
2022-12-15T10:55:39.161Z,32.92
2022-12-15T10:57:59.158Z,32.40
2022-12-15T11:00:23.014Z,31.75
2022-12-15T11:02:34.416Z,31.70
2022-12-15T11:05:16.441Z,33.55
2022-12-15T11:07:48.790Z,33.05
2022-12-15T11:10:09.400Z,34.13
2022-12-15T11:12:42.431Z,32.83
2022-12-15T11:14:56.477Z,32.15
2022-12-15T11:17:07.394Z,31.17
2022-12-15T11:19:20.928Z,32.27
2022-12-15T11:25:18.966Z,33.40
2022-12-15T11:27:49.748Z,33.33
2022-12-15T11:30:03.180Z,32.05
2022-12-15T11:32:07.447Z,32.70
2022-12-15T11:34:42.018Z,32.08
2022-12-15T11:37:29.363Z,33.17
2022-12-15T11:39:45.667Z,35.72
2022-12-15T11:42:04.778Z,35.60
2022-12-15T11:44:30.880Z,35.20
2022-12-15T11:46:55.661Z,34.97
2022-12-15T11:49:41.514Z,35.17
2022-12-15T11:52:27.176Z,36.55
2022-12-15T11:54:50.952Z,35.90
2022-12-15T12:00:23.895Z,37.80
2022-12-15T12:03:04.348Z,38.08
2022-12-15T12:05:25.059Z,37.90
2022-12-15T12:08:15.349Z,41.58
2022-12-15T12:10:51.298Z,38.60
2022-12-15T12:13:22.830Z,39.55
2022-12-15T12:15:47.705Z,37.80
2022-12-15T12:18:06.616Z,39.20
2022-12-15T12:20:15.049Z,38.67
2022-12-15T12:22:39.904Z,37.88
2022-12-15T12:25:09.622Z,36.13
2022-12-15T12:27:28.311Z,33.85
2022-12-15T12:29:36.170Z,33.35
2022-12-15T12:32:00.570Z,33.08
2022-12-15T12:35:30.317Z,31.45
2022-12-15T12:37:43.494Z,30.98
2022-12-15T12:39:45.790Z,30.80
2022-12-15T12:45:41.036Z,32.53
2022-12-15T12:48:02.029Z,30.88
2022-12-15T12:50:33.822Z,29.98
2022-12-15T12:52:38.395Z,29.98
2022-12-15T12:55:01.017Z,29.17
2022-12-15T12:57:10.795Z,28.80
2022-12-15T12:59:31.265Z,27.15
2022-12-15T13:01:35.615Z,24.85
2022-12-15T13:03:42.441Z,25.77
2022-12-15T13:05:50.413Z,24.65
2022-12-15T13:08:29.861Z,26.60
2022-12-15T13:13:56.507Z,25.33
2022-12-15T13:16:40.431Z,23.98
2022-12-15T13:19:11.927Z,24.05
2022-12-15T13:21:44.005Z,23.95
2022-12-15T13:29:37.776Z,25.08
2022-12-15T13:31:54.226Z,25.50
2022-12-15T13:34:01.744Z,24.42
2022-12-15T13:36:38.863Z,24.30
2022-12-15T13:39:23.759Z,23.25
2022-12-15T13:42:31.479Z,23.35
2022-12-15T13:44:52.054Z,23.08
2022-12-15T13:47:30.210Z,24.23
2022-12-15T13:49:42.064Z,24.10
2022-12-15T13:52:44.263Z,23.95
2022-12-15T13:54:56.432Z,24.52
2022-12-15T13:57:20.702Z,25.65
2022-12-15T14:00:19.424Z,24.33
2022-12-15T14:02:32.709Z,24.20
2022-12-15T14:04:35.756Z,24.45
2022-12-15T14:06:47.004Z,25.50
2022-12-15T14:09:17.251Z,25.30
2022-12-15T14:11:51.391Z,25.70
2022-12-15T14:13:52.369Z,27.20
2022-12-15T14:16:24.888Z,27.98
2022-12-15T14:18:37.112Z,29.35
2022-12-15T14:21:40.519Z,30.33
2022-12-15T14:24:37.471Z,30.73
2022-12-15T14:26:32.079Z,30.70
2022-12-15T14:29:15.698Z,29.02
2022-12-15T14:31:30.289Z,30.85
2022-12-15T14:34:12.346Z,31.20
2022-12-15T14:42:23.608Z,31.38
2022-12-15T14:44:37.847Z,30.80
2022-12-15T14:46:49.773Z,31.80
2022-12-15T14:49:29.232Z,33.53
2022-12-15T14:52:07.214Z,32.70
2022-12-15T14:54:49.903Z,33.03
2022-12-15T14:57:09.472Z,35.10
2022-12-15T14:59:34.160Z,33.95
2022-12-15T15:02:16.435Z,35.08
2022-12-15T15:03:16.358Z,24.15
2022-12-15T15:06:40.414Z,34.83
2022-12-15T15:08:49.749Z,36.55
2022-12-15T15:10:57.995Z,35.22
2022-12-15T15:13:00.904Z,33.03
2022-12-15T15:15:06.220Z,32.58
2022-12-15T15:17:17.130Z,30.77
2022-12-15T15:19:22.952Z,30.73
2022-12-15T15:21:28.643Z,30.13
2022-12-15T15:23:39.902Z,30.27
2022-12-15T15:25:56.933Z,30.27
2022-12-15T15:28:27.468Z,28.80
2022-12-15T15:30:30.646Z,29.13
2022-12-15T15:32:32.743Z,29.98
2022-12-15T15:34:39.708Z,28.88
2022-12-15T15:36:41.787Z,28.85
2022-12-15T15:38:54.664Z,28.73
2022-12-15T15:41:01.119Z,32.83
2022-12-15T15:43:14.452Z,32.58
2022-12-15T15:45:16.524Z,34.00
2022-12-15T15:47:47.417Z,32.50
2022-12-15T15:49:56.056Z,33.33
2022-12-15T15:51:59.117Z,27.77
2022-12-15T15:54:25.335Z,26.17
2022-12-15T15:56:37.537Z,28.92
2022-12-15T15:58:50.861Z,28.45
2022-12-15T16:00:58.993Z,26.40
2022-12-15T16:03:03.166Z,26.50
2022-12-15T16:05:21.240Z,28.80
2022-12-15T16:07:29.348Z,30.98
2022-12-15T16:09:37.485Z,32.40
2022-12-15T16:11:41.548Z,31.58
2022-12-15T16:13:51.533Z,30.27
2022-12-15T16:15:55.616Z,28.23
2022-12-15T16:17:58.229Z,28.98
2022-12-15T16:20:22.324Z,29.10
2022-12-15T16:22:24.947Z,28.13
2022-12-15T16:24:28.028Z,28.88
2022-12-15T16:26:33.564Z,27.88
2022-12-15T16:28:36.915Z,27.50
2022-12-15T16:30:43.768Z,30.02
2022-12-15T16:32:47.882Z,29.27
2022-12-15T16:34:51.765Z,29.83
2022-12-15T16:36:58.172Z,30.83
2022-12-15T16:39:10.862Z,29.83
2022-12-15T16:41:23.740Z,30.88
2022-12-15T16:43:47.762Z,30.42
2022-12-15T16:46:00.460Z,28.65
2022-12-15T16:48:03.817Z,28.10
2022-12-15T16:50:20.770Z,29.10
2022-12-15T16:52:34.795Z,28.33
2022-12-15T16:54:51.374Z,27.95
2022-12-15T16:57:01.478Z,28.13
2022-12-15T16:59:31.555Z,28.58
2022-12-15T17:03:33.622Z,29.60
2022-12-15T17:05:40.872Z,29.10
2022-12-15T17:07:56.345Z,31.08
2022-12-15T17:10:07.362Z,28.63
2022-12-15T17:12:19.170Z,29.13
2022-12-15T17:16:27.365Z,28.67
2022-12-15T17:18:30.757Z,28.95
2022-12-15T17:20:33.561Z,28.07
2022-12-15T17:22:35.727Z,29.17
2022-12-15T17:24:53.106Z,29.95
2022-12-15T17:27:01.399Z,30.02
2022-12-15T17:29:13.572Z,29.00
2022-12-15T17:31:21.801Z,29.70
2022-12-15T17:33:34.230Z,29.50
2022-12-15T17:35:49.758Z,30.13
2022-12-15T17:37:58.302Z,30.55
2022-12-15T17:40:00.846Z,31.33
2022-12-15T17:42:21.677Z,32.83
2022-12-15T17:44:40.140Z,36.17
2022-12-15T17:46:45.876Z,41.58
2022-12-15T17:48:49.407Z,38.25
2022-12-15T17:51:14.579Z,39.35
2022-12-15T17:53:31.196Z,38.15
2022-12-15T17:55:37.219Z,38.78
2022-12-15T17:57:40.269Z,40.65
2022-12-15T17:59:50.584Z,40.28
2022-12-15T18:01:57.906Z,40.78
2022-12-15T18:04:05.557Z,39.33
2022-12-15T18:06:15.859Z,40.25
2022-12-15T18:08:28.462Z,39.22
2022-12-15T18:10:41.408Z,38.92
2022-12-15T18:12:44.402Z,40.28
2022-12-15T18:14:48.045Z,39.97
2022-12-15T18:16:56.936Z,39.40
2022-12-15T18:19:02.461Z,41.13
2022-12-15T18:21:14.648Z,38.67
2022-12-15T18:23:27.152Z,35.42
2022-12-15T18:25:32.615Z,35.97
2022-12-15T18:27:51.124Z,39.92
2022-12-15T18:29:57.219Z,37.95
2022-12-15T18:32:00.008Z,38.90
2022-12-15T18:34:22.248Z,39.80
2022-12-15T18:36:25.003Z,38.35
2022-12-15T18:38:31.330Z,41.20
2022-12-15T18:40:40.842Z,40.92
2022-12-15T18:42:45.480Z,41.08
2022-12-15T18:44:53.684Z,42.42
2022-12-15T18:47:11.608Z,39.55
2022-12-15T18:49:39.747Z,37.95
2022-12-15T18:51:42.877Z,37.70
2022-12-15T18:53:54.673Z,38.78
2022-12-15T18:58:23.070Z,48.75
2022-12-15T19:00:30.695Z,43.90
2022-12-15T19:02:36.742Z,44.60
2022-12-15T19:04:39.291Z,47.47
2022-12-15T19:06:43.661Z,48.38
2022-12-15T19:08:47.044Z,48.28
2022-12-15T19:10:58.821Z,51.20
2022-12-15T19:15:20.539Z,48.45
2022-12-15T19:17:43.267Z,45.33
2022-12-15T19:20:06.772Z,43.78
2022-12-15T19:22:32.360Z,46.15
2022-12-15T19:24:56.570Z,45.13
2022-12-15T19:27:12.921Z,46.67
2022-12-15T19:29:21.618Z,46.42
2022-12-15T19:31:30.366Z,42.30
2022-12-15T19:33:33.823Z,38.90
2022-12-15T19:35:47.090Z,39.47
2022-12-15T19:37:51.305Z,41.15
2022-12-15T19:39:55.790Z,40.03
2022-12-15T19:42:17.635Z,39.40
2022-12-15T19:44:26.620Z,39.22
2022-12-15T19:46:35.584Z,42.08
2022-12-15T19:48:39.363Z,42.17
2022-12-15T19:50:44.910Z,39.80
2022-12-15T19:53:02.770Z,41.17
2022-12-15T19:55:26.327Z,40.03
2022-12-15T19:57:28.952Z,39.92
2022-12-15T19:59:46.032Z,39.63
2022-12-15T20:01:52.361Z,41.75
2022-12-15T20:04:13.307Z,39.80
2022-12-15T20:06:26.888Z,40.08
2022-12-15T20:08:37.546Z,40.88
2022-12-15T20:10:54.201Z,38.53
2022-12-15T20:13:06.211Z,37.75
2022-12-15T20:15:28.469Z,39.33
2022-12-15T20:17:32.618Z,42.40
2022-12-15T20:19:35.745Z,49.60
2022-12-15T20:21:43.522Z,68.35
2022-12-15T20:23:56.668Z,51.25
2022-12-15T20:26:01.968Z,45.30
2022-12-15T20:28:25.160Z,43.47
2022-12-15T20:30:43.230Z,42.58
2022-12-15T20:32:47.921Z,41.17
2022-12-15T20:34:57.196Z,39.53
2022-12-15T20:37:05.564Z,41.08
2022-12-15T20:39:26.137Z,39.92
2022-12-15T20:41:33.518Z,41.67
2022-12-15T20:43:37.058Z,41.00
2022-12-15T20:45:46.979Z,42.15
2022-12-15T20:47:58.534Z,39.92
2022-12-15T20:50:07.822Z,42.20
2022-12-15T20:52:20.106Z,42.63
2022-12-15T20:54:25.896Z,42.08
2022-12-15T20:56:42.812Z,41.50
2022-12-15T20:58:46.568Z,43.17
2022-12-15T21:00:51.855Z,42.72
2022-12-15T21:02:55.290Z,42.33
2022-12-15T21:05:00.664Z,40.10
2022-12-15T21:07:11.460Z,40.25
2022-12-15T21:09:16.590Z,42.28
2022-12-15T21:11:33.412Z,40.58
2022-12-15T21:13:51.223Z,43.78
2022-12-15T21:15:57.185Z,43.60
2022-12-15T21:18:40.602Z,47.10
2022-12-15T21:20:29.178Z,44.10
2022-12-15T21:22:34.224Z,43.20
2022-12-15T21:24:37.410Z,47.40
2022-12-15T21:26:47.247Z,42.72
2022-12-15T21:29:02.812Z,50.90
2022-12-15T21:31:13.063Z,41.38
2022-12-15T21:33:18.015Z,49.00
2022-12-15T21:35:22.366Z,53.25
2022-12-15T21:37:31.037Z,53.47
2022-12-15T21:39:37.435Z,54.75
2022-12-15T21:42:08.340Z,57.30
2022-12-15T21:44:14.253Z,53.38
2022-12-15T21:46:29.016Z,47.13
2022-12-15T21:48:55.506Z,46.42
2022-12-15T21:51:14.779Z,46.15
2022-12-15T21:53:17.837Z,47.40
2022-12-15T21:55:29.400Z,49.75
2022-12-15T21:57:32.259Z,53.22
2022-12-15T21:59:35.263Z,58.20
2022-12-15T22:01:38.427Z,56.80
2022-12-15T22:03:45.175Z,55.15
2022-12-15T22:05:48.067Z,45.42
2022-12-15T22:07:52.497Z,50.03
2022-12-15T22:09:56.404Z,50.00
2022-12-15T22:11:58.473Z,54.00
2022-12-15T22:14:15.317Z,54.28
2022-12-15T22:16:25.078Z,55.15
2022-12-15T22:18:27.123Z,58.33
2022-12-15T22:20:33.013Z,55.22
2022-12-15T22:22:51.789Z,56.15
2022-12-15T22:24:54.791Z,61.67
2022-12-15T22:26:57.746Z,61.92
2022-12-15T22:29:03.269Z,55.47
2022-12-15T22:31:05.343Z,55.85
2022-12-15T22:33:22.122Z,69.88
2022-12-15T22:35:26.836Z,67.00
2022-12-15T22:37:29.793Z,63.03
2022-12-15T22:39:32.124Z,65.57
2022-12-15T22:41:36.055Z,64.47
2022-12-15T22:43:41.814Z,62.20
2022-12-15T22:45:43.704Z,56.70
2022-12-15T22:47:47.499Z,55.15
2022-12-15T22:49:49.448Z,50.67
2022-12-15T22:51:51.448Z,51.55
2022-12-15T22:53:53.359Z,50.22
2022-12-15T22:55:57.051Z,50.92
2022-12-15T22:58:03.273Z,51.72
2022-12-15T23:00:09.807Z,50.33
2022-12-15T23:02:12.284Z,48.40
2022-12-15T23:04:14.619Z,46.50
2022-12-15T23:06:16.476Z,47.30
2022-12-15T23:08:18.411Z,49.20
2022-12-15T23:10:39.572Z,49.97
2022-12-15T23:12:41.746Z,52.30
2022-12-15T23:15:04.842Z,50.17
2022-12-15T23:17:07.295Z,52.80
2022-12-15T23:19:24.020Z,53.85
2022-12-15T23:21:26.800Z,51.22
2022-12-15T23:23:32.423Z,46.47
2022-12-15T23:25:34.860Z,44.78
2022-12-15T23:27:36.868Z,43.83
2022-12-15T23:29:38.759Z,42.67
2022-12-15T23:31:41.631Z,40.75
2022-12-15T23:33:43.797Z,40.35
2022-12-15T23:35:46.672Z,40.50
2022-12-15T23:37:48.546Z,39.72
2022-12-15T23:39:50.418Z,39.35
2022-12-15T23:41:53.674Z,42.28
2022-12-15T23:43:55.803Z,40.55
2022-12-15T23:46:06.299Z,38.67
2022-12-15T23:48:09.886Z,41.85
2022-12-15T23:50:12.039Z,41.25
2022-12-15T23:52:15.083Z,39.78
2022-12-15T23:54:17.014Z,39.47
2022-12-15T23:56:24.402Z,39.13
2022-12-15T23:58:26.228Z,39.38
